createdAt,value
2023-04-11T00:00:16.583Z,100892.16
2023-04-11T00:02:46.944Z,100889.91
2023-04-11T00:05:15.457Z,100885.28
2023-04-11T00:07:43.659Z,100886.84
2023-04-11T00:10:12.436Z,100895.41
2023-04-11T00:12:40.670Z,100896.19
2023-04-11T00:15:10.161Z,100895.06
2023-04-11T00:17:38.741Z,100893.88
2023-04-11T00:20:11.630Z,100898.50
2023-04-11T00:22:40.030Z,100894.69
2023-04-11T00:25:09.233Z,100896.28
2023-04-11T00:27:37.490Z,100895.91
2023-04-11T00:30:08.035Z,100899.28
2023-04-11T00:32:36.373Z,100892.34
2023-04-11T00:35:04.936Z,100897.75
2023-04-11T00:37:36.256Z,100897.75
2023-04-11T00:40:06.938Z,100907.38
2023-04-11T00:42:35.415Z,100902.31
2023-04-11T00:45:04.242Z,100900.75
2023-04-11T00:47:34.577Z,100904.56
2023-04-11T00:50:03.593Z,100916.53
2023-04-11T00:52:32.355Z,100906.06
2023-04-11T00:55:03.549Z,100903.72
2023-04-11T00:57:32.303Z,100912.97
2023-04-11T01:00:04.221Z,100900.56
2023-04-11T01:02:33.470Z,100904.84
2023-04-11T01:05:01.979Z,100895.13
2023-04-11T01:07:32.467Z,100910.94
2023-04-11T01:10:05.701Z,100909.03
2023-04-11T01:12:34.715Z,100904.75
2023-04-11T01:15:03.199Z,100896.53
2023-04-11T01:17:32.583Z,100905.81
2023-04-11T01:20:01.423Z,100896.91
2023-04-11T01:22:30.946Z,100903.09
2023-04-11T01:25:02.143Z,100900.41
2023-04-11T01:27:30.444Z,100908.06
2023-04-11T01:29:58.674Z,100907.22
2023-04-11T01:32:26.880Z,100900.22
2023-04-11T01:34:58.450Z,100891.31
2023-04-11T01:37:27.087Z,100891.25
2023-04-11T01:39:55.341Z,100893.13
2023-04-11T01:42:25.501Z,100903.97
2023-04-11T01:44:54.773Z,100907.03
2023-04-11T01:47:23.214Z,100913.25
2023-04-11T01:49:53.684Z,100913.25
2023-04-11T01:52:21.870Z,100921.72
2023-04-11T01:54:50.208Z,100917.88
2023-04-11T01:57:18.489Z,100912.47
2023-04-11T01:59:48.106Z,100920.94
2023-04-11T02:02:16.542Z,100916.28
2023-04-11T02:04:45.745Z,100928.25
2023-04-11T02:07:14.022Z,100920.13
2023-04-11T02:09:42.315Z,100923.97
2023-04-11T02:12:10.626Z,100930.19
2023-04-11T02:14:49.201Z,100932.41
2023-04-11T02:17:18.469Z,100931.22
2023-04-11T02:19:46.959Z,100935.41
2023-04-11T02:22:16.223Z,100935.31
2023-04-11T02:24:46.451Z,100930.63
2023-04-11T02:27:14.935Z,100934.44
2023-04-11T02:29:43.150Z,100936.69
2023-04-11T02:32:12.823Z,100940.53
2023-04-11T02:34:41.376Z,100932.78
2023-04-11T02:37:09.675Z,100946.66
2023-04-11T02:39:37.938Z,100946.66
2023-04-11T02:42:06.252Z,100934.25
2023-04-11T02:44:34.457Z,100949.34
2023-04-11T02:47:02.761Z,100956.25
2023-04-11T02:49:32.438Z,100954.22
2023-04-11T02:52:00.720Z,100951.84
2023-04-11T02:54:28.966Z,100957.25
2023-04-11T02:56:57.315Z,100958.38
2023-04-11T02:59:25.536Z,100964.97
2023-04-11T03:01:59.478Z,100966.50
2023-04-11T03:04:28.310Z,100960.34
2023-04-11T03:06:57.975Z,100954.94
2023-04-11T03:09:26.452Z,100952.97
2023-04-11T03:11:54.647Z,100954.53
2023-04-11T03:14:22.837Z,100950.28
2023-04-11T03:16:51.121Z,100964.16
2023-04-11T03:19:19.311Z,100952.91
2023-04-11T03:21:47.522Z,100955.16
2023-04-11T03:24:17.793Z,100967.44
2023-04-11T03:26:46.009Z,100966.25
2023-04-11T03:29:14.244Z,100960.72
2023-04-11T03:31:42.534Z,100970.75
2023-04-11T03:34:10.915Z,100975.38
2023-04-11T03:36:39.215Z,100972.22
2023-04-11T03:39:07.437Z,100979.91
2023-04-11T03:41:37.214Z,100979.91
2023-04-11T03:44:05.681Z,100997.25
2023-04-11T03:46:33.944Z,100990.28
2023-04-11T03:49:02.386Z,100989.84
2023-04-11T03:51:31.565Z,100999.03
2023-04-11T03:53:59.769Z,101007.53
2023-04-11T03:56:28.216Z,101004.38
2023-04-11T03:58:57.958Z,101003.91
2023-04-11T04:01:26.363Z,101002.81
2023-04-11T04:03:54.960Z,101013.16
2023-04-11T04:06:23.478Z,101016.19
2023-04-11T04:08:51.705Z,101009.22
2023-04-11T04:11:19.892Z,101015.78
2023-04-11T04:13:48.111Z,101004.19
2023-04-11T04:16:18.055Z,101005.75
2023-04-11T04:18:46.378Z,101006.53
2023-04-11T04:21:14.633Z,101013.50
2023-04-11T04:23:47.567Z,101011.94
2023-04-11T04:26:17.144Z,101012.38
2023-04-11T04:28:47.328Z,101018.50
2023-04-11T04:31:22.263Z,101018.03
2023-04-11T04:33:50.562Z,101021.84
2023-04-11T04:36:19.063Z,101018.38
2023-04-11T04:38:47.974Z,101031.09
2023-04-11T04:41:16.223Z,101031.09
2023-04-11T04:43:45.278Z,101030.31
2023-04-11T04:46:13.624Z,101036.50
2023-04-11T04:48:43.344Z,101030.66
2023-04-11T04:51:11.639Z,101041.13
2023-04-11T04:53:39.949Z,101052.72
2023-04-11T04:56:09.658Z,101043.03
2023-04-11T04:58:37.863Z,101054.19
2023-04-11T05:01:09.437Z,101051.03
2023-04-11T05:03:38.763Z,101061.06
2023-04-11T05:06:09.478Z,101061.75
2023-04-11T05:08:37.707Z,101059.03
2023-04-11T05:11:06.653Z,101060.63
2023-04-11T05:13:35.689Z,101066.38
2023-04-11T05:16:04.389Z,101070.50
2023-04-11T05:18:32.683Z,101067.81
2023-04-11T05:21:02.067Z,101072.78
2023-04-11T05:23:31.770Z,101078.06
2023-04-11T05:26:01.204Z,101078.41
2023-04-11T05:28:29.469Z,101076.81
2023-04-11T05:30:57.831Z,101073.34
2023-04-11T05:33:26.187Z,101085.06
2023-04-11T05:35:54.557Z,101086.06
2023-04-11T05:38:22.974Z,101090.69
2023-04-11T05:40:52.600Z,101091.03
2023-04-11T05:43:21.290Z,101089.00
2023-04-11T05:45:50.576Z,101100.94
2023-04-11T05:48:19.778Z,101103.97
2023-04-11T05:50:48.311Z,101122.88
2023-04-11T05:53:16.566Z,101115.91
2023-04-11T05:55:44.822Z,101135.16
2023-04-11T05:58:14.591Z,101130.44
2023-04-11T06:00:43.115Z,101133.91
2023-04-11T06:03:12.047Z,101137.06
2023-04-11T06:05:40.618Z,101142.09
2023-04-11T06:08:10.162Z,101142.59
2023-04-11T06:10:38.416Z,101141.44
2023-04-11T06:13:06.777Z,101148.78
2023-04-11T06:15:36.368Z,101148.88
2023-04-11T06:18:04.898Z,101154.06
2023-04-11T06:20:33.167Z,101155.06
2023-04-11T06:23:01.891Z,101158.47
2023-04-11T06:25:30.114Z,101168.72
2023-04-11T06:27:58.381Z,101158.81
2023-04-11T06:30:26.982Z,101160.16
2023-04-11T06:32:58.032Z,101166.22
2023-04-11T06:35:26.350Z,101169.56
2023-04-11T06:37:54.712Z,101165.09
2023-04-11T06:40:22.929Z,101171.94
2023-04-11T06:42:51.193Z,101178.00
2023-04-11T06:45:19.623Z,101173.16
2023-04-11T06:47:47.981Z,101186.88
2023-04-11T06:50:17.907Z,101183.34
2023-04-11T06:52:46.234Z,101193.56
2023-04-11T06:55:15.705Z,101190.19
2023-04-11T06:57:45.441Z,101187.47
2023-04-11T07:00:16.309Z,101195.16
2023-04-11T07:02:45.105Z,101193.94
2023-04-11T07:05:13.727Z,101205.31
2023-04-11T07:07:43.343Z,101196.91
2023-04-11T07:10:12.026Z,101193.09
2023-04-11T07:12:40.418Z,101199.50
2023-04-11T07:15:10.978Z,101204.50
2023-04-11T07:17:39.268Z,101204.72
2023-04-11T07:20:10.066Z,101205.84
2023-04-11T07:22:38.399Z,101211.88
2023-04-11T07:25:09.129Z,101219.00
2023-04-11T07:27:37.350Z,101211.47
2023-04-11T07:30:07.112Z,101210.31
2023-04-11T07:32:35.469Z,101216.03
2023-04-11T07:35:03.748Z,101206.06
2023-04-11T07:37:32.590Z,101214.31
2023-04-11T07:40:00.927Z,101207.59
2023-04-11T07:42:30.642Z,101208.06
2023-04-11T07:44:58.886Z,101210.63
2023-04-11T07:47:27.265Z,101215.34
2023-04-11T07:49:55.573Z,101214.97
2023-04-11T07:52:23.826Z,101218.84
2023-04-11T07:54:52.196Z,101218.13
2023-04-11T07:57:20.444Z,101222.75
2023-04-11T07:59:50.037Z,101226.09
2023-04-11T08:02:18.470Z,101223.31
2023-04-11T08:04:47.049Z,101229.84
2023-04-11T08:07:15.878Z,101219.91
2023-04-11T08:09:44.569Z,101230.97
2023-04-11T08:12:12.882Z,101232.78
2023-04-11T08:14:41.123Z,101241.69
2023-04-11T08:17:27.110Z,101242.78
2023-04-11T08:19:57.423Z,101255.69
2023-04-11T08:22:26.060Z,101249.88
2023-04-11T08:24:54.299Z,101255.22
2023-04-11T08:27:22.562Z,101255.56
2023-04-11T08:29:50.800Z,101258.22
2023-04-11T08:32:20.445Z,101250.66
2023-04-11T08:34:48.638Z,101264.88
2023-04-11T08:37:16.872Z,101266.69
2023-04-11T08:39:45.288Z,101268.06
2023-04-11T08:42:25.320Z,101270.78
2023-04-11T08:44:55.928Z,101275.78
2023-04-11T08:47:26.198Z,101271.47
2023-04-11T08:49:56.538Z,101257.56
2023-04-11T08:52:25.958Z,101264.38
2023-04-11T08:54:55.975Z,101279.16
2023-04-11T08:57:27.674Z,101281.38
2023-04-11T08:59:57.749Z,101266.22
2023-04-11T09:02:28.325Z,101286.03
2023-04-11T09:04:57.787Z,101284.75
2023-04-11T09:07:26.719Z,101295.66
2023-04-11T09:09:55.174Z,101281.16
2023-04-11T09:12:30.859Z,101271.78
2023-04-11T09:14:59.366Z,101275.47
2023-04-11T09:17:42.828Z,101290.03
2023-04-11T09:20:19.010Z,101277.09
2023-04-11T09:22:49.914Z,101297.38
2023-04-11T09:25:18.921Z,101297.34
2023-04-11T09:27:47.895Z,101293.28
2023-04-11T09:30:23.753Z,101290.03
2023-04-11T09:32:55.015Z,101288.31
2023-04-11T09:35:25.528Z,101298.41
2023-04-11T09:37:56.676Z,101296.78
2023-04-11T09:40:27.509Z,101284.91
2023-04-11T09:43:00.514Z,101278.81
2023-04-11T09:45:32.183Z,101290.22
2023-04-11T09:48:06.154Z,101291.66
2023-04-11T09:50:36.996Z,101297.97
2023-04-11T09:53:07.155Z,101299.44
2023-04-11T09:55:35.599Z,101303.41
2023-04-11T09:58:07.221Z,101301.03
2023-04-11T10:00:35.961Z,101294.88
2023-04-11T10:03:05.756Z,101299.91
2023-04-11T10:05:34.920Z,101302.09
2023-04-11T10:08:07.955Z,101293.41
2023-04-11T10:10:37.750Z,101288.16
2023-04-11T10:13:39.795Z,101297.53
2023-04-11T10:16:10.039Z,101307.66
2023-04-11T10:19:18.393Z,101284.19
2023-04-11T10:21:46.749Z,101292.88
2023-04-11T10:24:17.437Z,101300.09
2023-04-11T10:26:51.571Z,101300.19
2023-04-11T10:29:52.527Z,101301.56
2023-04-11T10:32:29.725Z,101291.84
2023-04-11T10:35:27.118Z,101288.63
2023-04-11T10:37:56.361Z,101279.91
2023-04-11T10:40:25.827Z,101285.56
2023-04-11T10:42:54.142Z,101280.22
2023-04-11T10:45:25.347Z,101278.06
2023-04-11T10:48:10.345Z,101273.97
2023-04-11T10:50:43.203Z,101257.28
2023-04-11T10:53:36.193Z,101275.78
2023-04-11T10:56:04.781Z,101271.28
2023-04-11T10:58:39.436Z,101270.63
2023-04-11T11:01:32.039Z,101262.44
2023-04-11T11:04:11.183Z,101268.31
2023-04-11T11:06:47.332Z,101264.38
2023-04-11T11:09:24.358Z,101279.22
2023-04-11T11:12:09.195Z,101281.16
2023-04-11T11:14:38.055Z,101284.28
2023-04-11T11:17:06.576Z,101282.38
2023-04-11T11:19:35.730Z,101271.44
2023-04-11T11:22:06.467Z,101272.97
2023-04-11T11:24:34.718Z,101287.84
2023-04-11T11:27:03.221Z,101278.47
2023-04-11T11:29:32.767Z,101280.81
2023-04-11T11:32:03.489Z,101264.78
2023-04-11T11:34:33.876Z,101269.84
2023-04-11T11:37:06.546Z,101276.09
2023-04-11T11:39:35.580Z,101269.09
2023-04-11T11:42:04.547Z,101284.72
2023-04-11T11:44:33.681Z,101276.50
2023-04-11T11:47:03.827Z,101272.22
2023-04-11T11:49:46.422Z,101274.16
2023-04-11T11:52:33.134Z,101271.44
2023-04-11T11:55:02.124Z,101265.97
2023-04-11T11:57:30.649Z,101279.25
2023-04-11T12:00:01.854Z,101266.72
2023-04-11T12:02:30.300Z,101281.97
2023-04-11T12:05:00.199Z,101280.41
2023-04-11T12:07:33.574Z,101278.47
2023-04-11T12:10:02.575Z,101281.59
2023-04-11T12:12:36.788Z,101291.69
2023-04-11T12:15:11.660Z,101279.16
2023-04-11T12:17:40.581Z,101279.88
2023-04-11T12:20:11.268Z,101282.19
2023-04-11T12:22:41.154Z,101286.03
2023-04-11T12:25:11.712Z,101276.66
2023-04-11T12:27:42.068Z,101276.66
2023-04-11T12:30:11.556Z,101289.09
2023-04-11T12:32:40.029Z,101274.25
2023-04-11T12:35:10.290Z,101273.78
2023-04-11T12:37:40.537Z,101292.81
2023-04-11T12:40:11.909Z,101283.31
2023-04-11T12:42:48.996Z,101274.66
2023-04-11T12:45:24.110Z,101277.81
2023-04-11T12:47:52.620Z,101287.63
2023-04-11T12:50:23.189Z,101278.34
2023-04-11T12:52:53.074Z,101288.25
2023-04-11T12:55:21.613Z,101284.44
2023-04-11T12:57:50.040Z,101282.91
2023-04-11T13:00:19.509Z,101282.59
2023-04-11T13:02:48.748Z,101279.50
2023-04-11T13:05:17.737Z,101275.66
2023-04-11T13:07:46.941Z,101272.94
2023-04-11T13:10:17.092Z,101275.31
2023-04-11T13:12:46.517Z,101282.72
2023-04-11T13:15:17.810Z,101260.88
2023-04-11T13:17:47.233Z,101279.25
2023-04-11T13:20:15.504Z,101268.28
2023-04-11T13:22:44.636Z,101276.09
2023-04-11T13:25:13.485Z,101269.47
2023-04-11T13:27:43.859Z,101268.28
2023-04-11T13:30:13.604Z,101285.47
2023-04-11T13:32:42.039Z,101276.88
2023-04-11T13:35:11.337Z,101272.19
2023-04-11T13:37:39.587Z,101270.25
2023-04-11T13:40:11.359Z,101255.78
2023-04-11T13:42:40.036Z,101266.75
2023-04-11T13:45:11.049Z,101265.56
2023-04-11T13:47:39.334Z,101267.53
2023-04-11T13:50:09.990Z,101266.75
2023-04-11T13:52:38.352Z,101274.91
2023-04-11T13:55:07.738Z,101257.34
2023-04-11T13:57:36.126Z,101254.56
2023-04-11T14:00:11.853Z,101262.00
2023-04-11T14:02:43.087Z,101243.25
2023-04-11T14:05:13.053Z,101268.25
2023-04-11T14:07:41.496Z,101264.34
2023-04-11T14:10:10.964Z,101264.31
2023-04-11T14:12:39.287Z,101246.34
2023-04-11T14:15:09.654Z,101260.38
2023-04-11T14:17:39.385Z,101255.28
2023-04-11T14:20:11.850Z,101258.00
2023-04-11T14:22:40.184Z,101251.41
2023-04-11T14:25:11.134Z,101254.53
2023-04-11T14:27:41.370Z,101240.47
2023-04-11T14:30:11.494Z,101236.22
2023-04-11T14:32:40.005Z,101236.97
2023-04-11T14:35:10.822Z,101236.59
2023-04-11T14:37:39.211Z,101240.13
2023-04-11T14:40:11.139Z,101243.22
2023-04-11T14:42:39.634Z,101221.75
2023-04-11T14:45:09.320Z,101217.84
2023-04-11T14:47:37.623Z,101217.44
2023-04-11T14:50:07.157Z,101214.34
2023-04-11T14:52:37.334Z,101223.69
2023-04-11T14:55:07.019Z,101218.22
2023-04-11T14:57:50.092Z,101229.94
2023-04-11T15:00:20.311Z,101226.81
2023-04-11T15:02:51.490Z,101222.91
2023-04-11T15:05:21.120Z,101211.56
2023-04-11T15:07:52.968Z,101212.72
2023-04-11T15:10:23.322Z,101217.78
2023-04-11T15:12:51.899Z,101209.16
2023-04-11T15:15:20.163Z,101219.69
2023-04-11T15:17:51.189Z,101218.50
2023-04-11T15:20:20.039Z,101206.75
2023-04-11T15:22:50.974Z,101209.09
2023-04-11T15:25:19.274Z,101201.69
2023-04-11T15:27:47.509Z,101207.09
2023-04-11T15:30:15.955Z,101191.88
2023-04-11T15:32:44.504Z,101191.84
2023-04-11T15:35:13.105Z,101191.47
2023-04-11T15:37:41.452Z,101184.78
2023-04-11T15:40:12.609Z,101190.97
2023-04-11T15:42:41.012Z,101185.09
2023-04-11T15:45:10.117Z,101188.97
2023-04-11T15:47:38.453Z,101198.25
2023-04-11T15:50:08.173Z,101187.34
2023-04-11T15:52:36.410Z,101198.25
2023-04-11T15:55:05.110Z,101184.56
2023-04-11T15:57:34.845Z,101187.69
2023-04-11T16:00:08.700Z,101179.88
2023-04-11T16:02:37.341Z,101184.13
2023-04-11T16:05:07.850Z,101183.31
2023-04-11T16:07:36.267Z,101184.44
2023-04-11T16:10:05.112Z,101179.72
2023-04-11T16:12:34.871Z,101172.63
2023-04-11T16:15:03.307Z,101183.09
2023-04-11T16:17:31.734Z,101173.69
2023-04-11T16:20:00.697Z,101174.44
2023-04-11T16:22:29.013Z,101168.59
2023-04-11T16:24:57.224Z,101160.03
2023-04-11T16:27:25.784Z,101161.16
2023-04-11T16:29:59.828Z,101156.88
2023-04-11T16:32:28.680Z,101150.25
2023-04-11T16:34:57.772Z,101154.16
2023-04-11T16:37:26.193Z,101148.69
2023-04-11T16:39:54.699Z,101138.59
2023-04-11T16:42:24.046Z,101151.44
2023-04-11T16:44:53.906Z,101144.00
2023-04-11T16:47:26.094Z,101145.13
2023-04-11T16:49:55.021Z,101154.00
2023-04-11T16:52:23.643Z,101143.84
2023-04-11T16:54:52.340Z,101144.22
2023-04-11T16:57:20.725Z,101143.00
2023-04-11T16:59:48.993Z,101141.44
2023-04-11T17:02:18.892Z,101145.28
2023-04-11T17:04:47.218Z,101138.19
2023-04-11T17:07:16.123Z,101144.34
2023-04-11T17:09:45.785Z,101133.38
2023-04-11T17:12:14.061Z,101130.63
2023-04-11T17:14:42.362Z,101132.91
2023-04-11T17:17:10.913Z,101125.09
2023-04-11T17:19:40.721Z,101123.09
2023-04-11T17:22:09.155Z,101121.53
2023-04-11T17:24:37.575Z,101121.53
2023-04-11T17:27:05.954Z,101117.16
2023-04-11T17:29:34.266Z,101114.78
2023-04-11T17:32:04.148Z,101109.31
2023-04-11T17:34:32.450Z,101109.25
2023-04-11T17:37:02.193Z,101110.44
2023-04-11T17:39:30.489Z,101102.97
2023-04-11T17:41:58.799Z,101100.25
2023-04-11T17:44:27.019Z,101091.28
2023-04-11T17:46:55.812Z,101093.22
2023-04-11T17:49:24.948Z,101099.47
2023-04-11T17:51:58.860Z,101095.50
2023-04-11T17:54:29.354Z,101084.53
2023-04-11T17:56:57.773Z,101087.25
2023-04-11T17:59:26.127Z,101082.13
2023-04-11T18:01:55.899Z,101085.16
2023-04-11T18:04:24.536Z,101084.66
2023-04-11T18:06:55.050Z,101084.22
2023-04-11T18:09:26.606Z,101091.91
2023-04-11T18:11:57.340Z,101088.75
2023-04-11T18:14:25.611Z,101089.84
2023-04-11T18:16:53.860Z,101090.94
2023-04-11T18:19:22.143Z,101083.06
2023-04-11T18:21:50.691Z,101081.47
2023-04-11T18:24:19.276Z,101075.59
2023-04-11T18:26:48.179Z,101077.16
2023-04-11T18:29:17.894Z,101075.09
2023-04-11T18:31:46.321Z,101067.25
2023-04-11T18:34:14.797Z,101066.00
2023-04-11T18:36:43.510Z,101064.00
2023-04-11T18:39:12.005Z,101067.81
2023-04-11T18:41:40.423Z,101075.56
2023-04-11T18:44:09.809Z,101069.28
2023-04-11T18:46:39.894Z,101067.25
2023-04-11T18:49:08.332Z,101063.38
2023-04-11T18:51:37.949Z,101056.75
2023-04-11T18:54:06.683Z,101055.63
2023-04-11T18:56:37.165Z,101057.19
2023-04-11T18:59:09.579Z,101057.53
2023-04-11T19:01:41.967Z,101062.19
2023-04-11T19:04:11.119Z,101057.94
2023-04-11T19:06:39.464Z,101059.09
2023-04-11T19:09:07.956Z,101060.56
2023-04-11T19:11:38.196Z,101063.66
2023-04-11T19:14:06.798Z,101051.63
2023-04-11T19:16:35.514Z,101052.78
2023-04-11T19:19:05.858Z,101050.47
2023-04-11T19:21:34.202Z,101044.25
2023-04-11T19:24:02.589Z,101043.81
2023-04-11T19:26:31.159Z,101046.44
2023-04-11T19:29:00.202Z,101038.25
2023-04-11T19:31:28.801Z,101037.81
2023-04-11T19:33:57.362Z,101033.94
2023-04-11T19:36:29.354Z,101036.56
2023-04-11T19:38:58.004Z,101035.00
2023-04-11T19:41:26.482Z,101025.28
2023-04-11T19:43:55.188Z,101036.88
2023-04-11T19:46:23.842Z,101026.00
2023-04-11T19:48:52.395Z,101015.50
2023-04-11T19:51:20.738Z,101020.91
2023-04-11T19:53:50.736Z,101012.75
2023-04-11T19:56:19.089Z,101010.03
2023-04-11T19:58:47.655Z,101010.44
2023-04-11T20:01:17.252Z,100998.78
2023-04-11T20:03:45.679Z,100998.03
2023-04-11T20:06:14.120Z,101003.47
2023-04-11T20:08:42.421Z,100993.34
2023-04-11T20:11:16.133Z,100984.00
2023-04-11T20:13:44.460Z,100975.44
2023-04-11T20:16:12.723Z,100976.59
2023-04-11T20:18:41.059Z,100967.66
2023-04-11T20:21:09.438Z,100964.16
2023-04-11T20:23:38.060Z,100959.47
2023-04-11T20:26:06.876Z,100957.47
2023-04-11T20:28:37.811Z,100955.91
2023-04-11T20:31:06.625Z,100952.00
2023-04-11T20:33:35.291Z,100945.34
2023-04-11T20:36:03.831Z,100942.63
2023-04-11T20:38:32.150Z,100937.56
2023-04-11T20:41:03.650Z,100934.88
2023-04-11T20:43:33.159Z,100924.78
2023-04-11T20:46:08.352Z,100927.50
2023-04-11T20:48:37.679Z,100910.81
2023-04-11T20:51:07.884Z,100916.53
2023-04-11T20:53:36.236Z,100898.25
2023-04-11T20:56:05.963Z,100898.56
2023-04-11T20:58:34.335Z,100903.16
2023-04-11T21:01:04.068Z,100891.03
2023-04-11T21:03:33.792Z,100888.66
2023-04-11T21:06:07.471Z,100887.47
2023-04-11T21:08:37.756Z,100870.81
2023-04-11T21:11:07.064Z,100863.47
2023-04-11T21:13:35.389Z,100859.28
2023-04-11T21:16:05.282Z,100852.63
2023-04-11T21:18:33.662Z,100846.78
2023-04-11T21:21:02.077Z,100836.69
2023-04-11T21:23:30.401Z,100835.06
2023-04-11T21:25:58.688Z,100825.34
2023-04-11T21:28:27.023Z,100825.69
2023-04-11T21:30:55.341Z,100818.66
2023-04-11T21:33:25.022Z,100829.50
2023-04-11T21:35:55.259Z,100819.00
2023-04-11T21:38:23.608Z,100812.72
2023-04-11T21:40:51.963Z,100811.53
2023-04-11T21:43:20.221Z,100802.19
2023-04-11T21:45:48.480Z,100802.13
2023-04-11T21:48:16.726Z,100803.63
2023-04-11T21:50:46.452Z,100801.66
2023-04-11T21:53:15.052Z,100800.44
2023-04-11T21:55:47.069Z,100793.81
2023-04-11T21:58:26.304Z,100805.03
2023-04-11T22:00:57.169Z,100800.38
2023-04-11T22:03:26.838Z,100799.97
2023-04-11T22:05:58.200Z,100792.25
2023-04-11T22:08:29.346Z,100784.47
2023-04-11T22:10:57.469Z,100787.94
2023-04-11T22:13:26.110Z,100781.78
2023-04-11T22:15:58.704Z,100778.69
2023-04-11T22:18:27.335Z,100771.34
2023-04-11T22:20:56.967Z,100781.06
2023-04-11T22:23:25.342Z,100779.13
2023-04-11T22:25:59.375Z,100776.03
2023-04-11T22:28:27.707Z,100767.13
2023-04-11T22:30:57.705Z,100765.56
2023-04-11T22:33:26.098Z,100771.00
2023-04-11T22:35:54.509Z,100761.66
2023-04-11T22:38:25.852Z,100761.66
2023-04-11T22:40:54.044Z,100750.41
2023-04-11T22:43:22.612Z,100736.06
2023-04-11T22:45:50.863Z,100736.41
2023-04-11T22:48:19.135Z,100742.19
2023-04-11T22:50:52.822Z,100739.03
2023-04-11T22:53:21.999Z,100736.31
2023-04-11T22:55:51.712Z,100726.16
2023-04-11T22:58:20.181Z,100717.91
2023-04-11T23:00:49.226Z,100717.88
2023-04-11T23:03:18.624Z,100713.16
2023-04-11T23:05:47.241Z,100716.63
2023-04-11T23:08:15.700Z,100710.69
2023-04-11T23:10:43.919Z,100695.88
2023-04-11T23:13:14.189Z,100705.09
2023-04-11T23:15:42.415Z,100695.75
2023-04-11T23:18:10.607Z,100687.16
2023-04-11T23:20:38.805Z,100678.03
2023-04-11T23:23:07.162Z,100673.34
2023-04-11T23:25:39.017Z,100665.94
2023-04-11T23:28:08.011Z,100655.75
2023-04-11T23:30:38.906Z,100655.66
2023-04-11T23:33:08.710Z,100653.59
2023-04-11T23:35:37.869Z,100652.44
2023-04-11T23:38:06.756Z,100648.53
2023-04-11T23:40:35.070Z,100643.00
2023-04-11T23:43:03.324Z,100648.44
2023-04-11T23:45:32.043Z,100643.31
2023-04-11T23:48:01.748Z,100637.47
2023-04-11T23:50:30.061Z,100630.88
2023-04-11T23:52:58.221Z,100628.50
2023-04-11T23:55:26.776Z,100618.81
2023-04-11T23:57:55.079Z,100614.84
